createdAt,value
2019-04-07T00:01:32.099Z,9.00
2019-04-07T00:04:01.433Z,8.90
2019-04-07T00:06:30.714Z,8.80
2019-04-07T00:09:00.520Z,8.80
2019-04-07T00:11:29.939Z,8.80
2019-04-07T00:13:59.248Z,8.70
2019-04-07T00:16:28.542Z,8.70
2019-04-07T00:18:58.471Z,8.80
2019-04-07T00:21:28.068Z,8.70
2019-04-07T00:23:57.894Z,8.70
2019-04-07T00:26:27.793Z,8.70
2019-04-07T00:28:57.792Z,8.60
2019-04-07T00:31:27.748Z,8.60
2019-04-07T00:33:57.089Z,8.60
2019-04-07T00:36:27.873Z,8.60
2019-04-07T00:38:57.308Z,8.60
2019-04-07T00:41:26.679Z,8.60
2019-04-07T00:43:56.173Z,8.60
2019-04-07T00:46:25.704Z,8.60
2019-04-07T00:48:55.130Z,8.60
2019-04-07T00:51:24.574Z,8.50
2019-04-07T00:53:54.002Z,8.60
2019-04-07T00:56:24.602Z,8.60
2019-04-07T00:58:54.546Z,8.60
2019-04-07T01:01:24.527Z,8.50
2019-04-07T01:03:54.608Z,8.50
2019-04-07T01:06:24.166Z,8.40
2019-04-07T01:08:53.702Z,8.30
2019-04-07T01:11:23.145Z,8.10
2019-04-07T01:13:52.908Z,8.00
2019-04-07T01:16:22.435Z,8.00
2019-04-07T01:18:51.987Z,7.90
2019-04-07T01:21:21.908Z,7.90
2019-04-07T01:23:51.740Z,7.90
2019-04-07T01:26:21.694Z,7.90
2019-04-07T01:28:53.646Z,7.90
2019-04-07T01:31:22.567Z,7.80
2019-04-07T01:33:52.192Z,7.90
2019-04-07T01:36:21.621Z,7.90
2019-04-07T01:38:51.170Z,7.90
2019-04-07T01:41:31.795Z,7.90
2019-04-07T01:44:06.405Z,8.00
2019-04-07T01:46:54.721Z,8.00
2019-04-07T01:49:30.515Z,7.90
2019-04-07T01:52:10.874Z,7.80
2019-04-07T01:55:05.133Z,7.80
2019-04-07T01:57:56.576Z,7.70
2019-04-07T02:00:48.428Z,7.50
2019-04-07T02:03:55.041Z,7.50
2019-04-07T02:06:49.514Z,7.50
2019-04-07T02:09:31.431Z,7.40
2019-04-07T02:12:23.021Z,7.40
2019-04-07T02:15:08.580Z,7.30
2019-04-07T02:17:44.044Z,7.30
2019-04-07T02:21:13.034Z,7.30
2019-04-07T02:23:51.371Z,7.30
2019-04-07T02:26:54.827Z,7.40
2019-04-07T02:29:52.138Z,7.30
2019-04-07T02:32:56.318Z,7.30
2019-04-07T02:35:45.027Z,7.30
2019-04-07T02:38:36.851Z,7.30
2019-04-07T02:41:15.793Z,7.30
2019-04-07T02:43:53.052Z,7.30
2019-04-07T02:46:40.788Z,7.30
2019-04-07T02:49:29.215Z,7.30
2019-04-07T02:52:14.651Z,7.30
2019-04-07T02:54:59.567Z,7.30
2019-04-07T02:57:34.136Z,7.30
2019-04-07T03:00:28.411Z,7.20
2019-04-07T03:03:17.002Z,7.20
2019-04-07T03:06:00.170Z,7.30
2019-04-07T03:08:47.516Z,7.20
2019-04-07T03:11:24.777Z,7.30
2019-04-07T03:14:17.610Z,7.30
2019-04-07T03:16:57.778Z,7.10
2019-04-07T03:19:46.734Z,7.00
2019-04-07T03:22:34.072Z,7.00
2019-04-07T03:25:26.994Z,7.00
2019-04-07T03:28:06.766Z,6.90
2019-04-07T03:30:54.726Z,6.90
2019-04-07T03:33:45.428Z,6.90
2019-04-07T03:36:24.310Z,7.00
2019-04-07T03:39:12.066Z,7.00
2019-04-07T03:42:15.790Z,7.00
2019-04-07T03:44:56.936Z,7.00
2019-04-07T03:47:54.657Z,7.00
2019-04-07T03:50:44.758Z,7.00
2019-04-07T03:53:33.676Z,7.00
2019-04-07T03:56:11.632Z,7.00
2019-04-07T03:59:00.033Z,7.00
2019-04-07T04:01:48.304Z,6.90
2019-04-07T04:04:31.683Z,6.80
2019-04-07T04:07:22.433Z,6.80
2019-04-07T04:10:04.438Z,6.70
2019-04-07T04:12:41.600Z,6.60
2019-04-07T04:15:18.403Z,6.70
2019-04-07T04:17:48.172Z,6.70
2019-04-07T04:20:17.704Z,6.60
2019-04-07T04:22:47.073Z,6.60
2019-04-07T04:25:17.184Z,6.60
2019-04-07T04:27:46.898Z,6.60
2019-04-07T04:30:16.912Z,6.60
2019-04-07T04:32:46.461Z,6.70
2019-04-07T04:35:15.803Z,6.70
2019-04-07T04:37:51.184Z,6.70
2019-04-07T04:40:16.604Z,6.70
2019-04-07T04:42:45.940Z,6.70
2019-04-07T04:45:15.857Z,6.70
2019-04-07T04:47:46.239Z,6.70
2019-04-07T04:50:15.739Z,6.70
2019-04-07T04:52:45.643Z,6.70
2019-04-07T04:55:15.400Z,6.70
2019-04-07T04:57:45.798Z,6.70
2019-04-07T05:00:18.768Z,6.80
2019-04-07T05:02:49.473Z,6.70
2019-04-07T05:05:18.999Z,6.70
2019-04-07T05:07:57.646Z,6.70
2019-04-07T05:10:19.361Z,6.70
2019-04-07T05:12:48.781Z,6.60
2019-04-07T05:15:18.161Z,6.60
2019-04-07T05:17:47.494Z,6.70
2019-04-07T05:20:17.308Z,6.70
2019-04-07T05:22:46.682Z,6.80
2019-04-07T05:25:16.001Z,6.90
2019-04-07T05:27:45.835Z,7.00
2019-04-07T05:30:16.893Z,7.00
2019-04-07T05:32:46.913Z,7.10
2019-04-07T05:35:16.446Z,7.10
2019-04-07T05:37:46.934Z,7.20
2019-04-07T05:40:16.611Z,7.30
2019-04-07T05:42:46.575Z,7.30
2019-04-07T05:45:16.049Z,7.40
2019-04-07T05:47:49.387Z,7.40
2019-04-07T05:50:17.949Z,7.50
2019-04-07T05:52:50.011Z,7.60
2019-04-07T05:55:21.824Z,7.70
2019-04-07T05:57:50.339Z,7.80
2019-04-07T06:00:20.647Z,7.90
2019-04-07T06:02:50.788Z,8.00
2019-04-07T06:05:20.255Z,8.00
2019-04-07T06:07:49.606Z,8.10
2019-04-07T06:10:22.861Z,8.20
2019-04-07T06:12:53.157Z,8.30
2019-04-07T06:15:23.286Z,8.50
2019-04-07T06:17:59.192Z,8.60
2019-04-07T06:20:25.780Z,8.70
2019-04-07T06:22:55.098Z,8.80
2019-04-07T06:25:25.120Z,8.80
2019-04-07T06:27:54.984Z,8.90
2019-04-07T06:30:27.806Z,9.00
2019-04-07T06:32:55.550Z,9.00
2019-04-07T06:35:24.925Z,9.10
2019-04-07T06:37:56.912Z,9.30
2019-04-07T06:40:25.280Z,9.40
2019-04-07T06:42:54.593Z,9.60
2019-04-07T06:45:28.283Z,9.60
2019-04-07T06:48:01.581Z,9.80
2019-04-07T06:50:53.128Z,9.90
2019-04-07T06:53:37.149Z,10.20
2019-04-07T06:56:12.578Z,10.30
2019-04-07T06:59:13.860Z,10.40
2019-04-07T07:02:15.157Z,10.50
2019-04-07T07:05:22.393Z,10.70
2019-04-07T07:08:11.701Z,10.90
2019-04-07T07:11:00.092Z,11.10
2019-04-07T07:13:36.649Z,11.20
2019-04-07T07:16:21.876Z,11.30
2019-04-07T07:19:02.159Z,11.40
2019-04-07T07:21:59.673Z,11.50
2019-04-07T07:24:29.566Z,11.70
2019-04-07T07:26:59.395Z,11.80
2019-04-07T07:29:28.917Z,11.80
2019-04-07T07:32:02.542Z,11.80
2019-04-07T07:34:29.457Z,11.90
2019-04-07T07:36:59.935Z,12.00
2019-04-07T07:39:30.507Z,12.00
2019-04-07T07:41:59.932Z,12.00
2019-04-07T07:44:31.238Z,12.20
2019-04-07T07:47:00.479Z,12.30
2019-04-07T07:49:33.458Z,12.40
2019-04-07T07:52:01.469Z,12.50
2019-04-07T07:54:31.620Z,12.60
2019-04-07T07:57:01.402Z,12.80
2019-04-07T07:59:34.624Z,12.80
2019-04-07T08:02:02.446Z,12.90
2019-04-07T08:04:31.904Z,13.00
2019-04-07T08:07:02.629Z,13.10
2019-04-07T08:09:32.862Z,13.20
2019-04-07T08:12:05.115Z,13.40
2019-04-07T08:14:34.919Z,13.50
2019-04-07T08:17:04.348Z,13.70
2019-04-07T08:19:33.655Z,13.80
2019-04-07T08:22:03.076Z,14.00
2019-04-07T08:24:32.697Z,14.10
2019-04-07T08:27:02.245Z,14.10
2019-04-07T08:29:32.316Z,14.20
2019-04-07T08:32:02.165Z,14.40
2019-04-07T08:34:32.943Z,14.50
2019-04-07T08:37:03.731Z,14.60
2019-04-07T08:39:35.445Z,14.80
2019-04-07T08:42:09.581Z,14.90
2019-04-07T08:44:35.545Z,15.00
2019-04-07T08:47:04.985Z,15.00
2019-04-07T08:49:35.384Z,15.20
2019-04-07T08:52:09.075Z,15.20
2019-04-07T08:54:36.860Z,15.30
2019-04-07T08:57:07.084Z,15.30
2019-04-07T08:59:39.883Z,15.50
2019-04-07T09:02:20.039Z,15.60
2019-04-07T09:04:51.233Z,15.60
2019-04-07T09:07:23.324Z,15.80
2019-04-07T09:09:51.710Z,15.80
2019-04-07T09:12:21.764Z,16.00
2019-04-07T09:14:51.425Z,16.10
2019-04-07T09:17:51.925Z,16.20
2019-04-07T09:20:42.649Z,16.30
2019-04-07T09:23:27.525Z,16.50
2019-04-07T09:26:16.081Z,16.50
2019-04-07T09:29:07.289Z,16.60
2019-04-07T09:32:02.185Z,16.60
2019-04-07T09:34:52.300Z,16.70
2019-04-07T09:37:31.394Z,16.80
2019-04-07T09:40:12.868Z,16.80
2019-04-07T09:42:51.941Z,16.80
2019-04-07T09:45:39.396Z,16.90
2019-04-07T09:48:29.628Z,16.90
2019-04-07T09:51:17.681Z,17.00
2019-04-07T09:54:04.131Z,17.00
2019-04-07T09:57:07.209Z,16.80
2019-04-07T09:59:55.187Z,16.80
2019-04-07T10:02:53.064Z,17.00
2019-04-07T10:05:44.333Z,17.00
2019-04-07T10:08:41.988Z,17.00
2019-04-07T10:11:39.664Z,17.10
2019-04-07T10:14:27.902Z,17.20
2019-04-07T10:17:18.954Z,17.20
2019-04-07T10:20:02.237Z,17.10
2019-04-07T10:22:49.242Z,17.10
2019-04-07T10:25:26.851Z,17.30
2019-04-07T10:28:13.765Z,17.40
2019-04-07T10:31:01.181Z,17.50
2019-04-07T10:33:44.904Z,17.30
2019-04-07T10:36:45.176Z,17.10
2019-04-07T10:39:33.671Z,17.20
2019-04-07T10:42:28.273Z,17.40
2019-04-07T10:45:20.655Z,17.50
2019-04-07T10:48:12.024Z,17.50
2019-04-07T10:51:00.282Z,17.40
2019-04-07T10:53:51.139Z,17.20
2019-04-07T10:56:46.091Z,17.30
2019-04-07T10:59:37.276Z,17.50
2019-04-07T11:02:35.054Z,17.40
2019-04-07T11:05:24.387Z,17.20
2019-04-07T11:08:22.088Z,17.20
2019-04-07T11:11:10.315Z,17.00
2019-04-07T11:14:01.753Z,16.90
2019-04-07T11:16:48.840Z,16.90
2019-04-07T11:19:37.764Z,17.00
2019-04-07T11:22:26.616Z,17.20
2019-04-07T11:25:18.334Z,17.20
2019-04-07T11:28:02.691Z,17.40
2019-04-07T11:30:54.355Z,17.50
2019-04-07T11:33:45.070Z,17.50
2019-04-07T11:36:21.623Z,17.40
2019-04-07T11:39:16.169Z,17.30
2019-04-07T11:42:01.150Z,17.30
2019-04-07T11:44:42.265Z,17.10
2019-04-07T11:47:24.134Z,17.10
2019-04-07T11:50:12.537Z,17.20
2019-04-07T11:53:07.559Z,17.20
2019-04-07T11:55:52.226Z,17.20
2019-04-07T11:58:53.131Z,17.20
2019-04-07T12:01:49.784Z,17.30
2019-04-07T12:04:46.865Z,17.30
2019-04-07T12:07:35.580Z,17.40
2019-04-07T12:10:20.306Z,17.30
2019-04-07T12:13:07.652Z,17.30
2019-04-07T12:15:56.072Z,17.40
2019-04-07T12:18:35.275Z,17.40
2019-04-07T12:21:20.755Z,17.50
2019-04-07T12:24:04.828Z,17.50
2019-04-07T12:27:02.551Z,17.50
2019-04-07T12:29:39.853Z,17.70
2019-04-07T12:32:18.123Z,17.60
2019-04-07T12:35:12.985Z,17.70
2019-04-07T12:38:01.624Z,17.70
2019-04-07T12:41:12.321Z,17.70
2019-04-07T12:43:40.336Z,17.80
2019-04-07T12:46:21.460Z,17.80
2019-04-07T12:49:18.892Z,17.90
2019-04-07T12:52:03.074Z,17.90
2019-04-07T12:54:54.700Z,17.90
2019-04-07T12:57:36.748Z,17.80
2019-04-07T13:00:25.155Z,17.70
2019-04-07T13:03:04.438Z,17.70
2019-04-07T13:05:52.858Z,17.90
2019-04-07T13:08:28.671Z,18.20
2019-04-07T13:11:09.956Z,18.20
2019-04-07T13:13:55.282Z,18.30
2019-04-07T13:16:36.041Z,18.20
2019-04-07T13:19:18.811Z,18.10
2019-04-07T13:22:07.957Z,17.80
2019-04-07T13:24:48.558Z,17.90
2019-04-07T13:27:37.190Z,18.10
2019-04-07T13:30:23.560Z,18.10
2019-04-07T13:33:23.759Z,18.30
2019-04-07T13:36:14.941Z,18.30
2019-04-07T13:38:58.841Z,18.40
2019-04-07T13:41:50.426Z,18.50
2019-04-07T13:44:44.707Z,18.30
2019-04-07T13:47:39.504Z,18.30
2019-04-07T13:50:38.239Z,18.40
2019-04-07T13:53:18.178Z,18.10
2019-04-07T13:56:01.749Z,18.10
2019-04-07T13:58:37.637Z,18.20
2019-04-07T14:01:13.789Z,18.20
2019-04-07T14:04:08.930Z,18.30
2019-04-07T14:06:52.253Z,18.40
2019-04-07T14:09:40.696Z,18.40
2019-04-07T14:12:38.841Z,18.30
2019-04-07T14:15:17.975Z,18.40
2019-04-07T14:18:04.817Z,18.50
2019-04-07T14:20:42.836Z,18.40
2019-04-07T14:23:41.006Z,18.40
2019-04-07T14:26:29.357Z,18.60
2019-04-07T14:29:28.392Z,18.70
2019-04-07T14:32:13.136Z,18.80
2019-04-07T14:35:02.297Z,18.70
2019-04-07T14:37:57.219Z,18.60
2019-04-07T14:40:48.960Z,18.50
2019-04-07T14:43:33.219Z,18.50
2019-04-07T14:46:22.696Z,18.50
2019-04-07T14:49:23.887Z,18.70
2019-04-07T14:52:13.371Z,18.70
2019-04-07T14:55:11.095Z,18.80
2019-04-07T14:58:06.751Z,18.80
2019-04-07T15:01:06.751Z,18.80
2019-04-07T15:03:35.265Z,18.70
2019-04-07T15:06:05.445Z,18.60
2019-04-07T15:09:12.228Z,18.50
2019-04-07T15:11:45.654Z,18.50
2019-04-07T15:14:15.216Z,18.50
2019-04-07T15:16:45.084Z,18.50
2019-04-07T15:19:14.489Z,18.60
2019-04-07T15:21:44.120Z,18.60
2019-04-07T15:24:13.626Z,18.70
2019-04-07T15:26:46.991Z,18.90
2019-04-07T15:29:14.668Z,19.00
2019-04-07T15:31:46.506Z,19.00
2019-04-07T15:34:15.493Z,19.00
2019-04-07T15:36:48.041Z,19.00
2019-04-07T15:39:16.244Z,19.10
2019-04-07T15:41:45.648Z,19.10
2019-04-07T15:44:15.700Z,19.00
2019-04-07T15:46:49.044Z,18.90
2019-04-07T15:49:16.795Z,18.80
2019-04-07T15:51:46.052Z,18.60
2019-04-07T15:54:19.852Z,18.50
2019-04-07T15:56:49.310Z,18.70
2019-04-07T15:59:18.806Z,18.70
2019-04-07T16:01:48.269Z,18.80
2019-04-07T16:04:18.382Z,19.00
2019-04-07T16:06:50.280Z,19.00
2019-04-07T16:09:33.418Z,18.90
2019-04-07T16:11:51.849Z,18.90
2019-04-07T16:14:21.971Z,18.80
2019-04-07T16:16:53.429Z,18.70
2019-04-07T16:19:34.869Z,18.60
2019-04-07T16:21:53.837Z,18.80
2019-04-07T16:24:23.115Z,18.70
2019-04-07T16:26:52.656Z,18.70
2019-04-07T16:29:22.085Z,18.80
2019-04-07T16:31:51.864Z,18.70
2019-04-07T16:34:21.361Z,18.70
2019-04-07T16:36:51.901Z,18.50
2019-04-07T16:39:21.689Z,18.40
2019-04-07T16:41:50.984Z,18.30
2019-04-07T16:44:20.342Z,18.40
2019-04-07T16:46:52.009Z,18.50
2019-04-07T16:49:21.653Z,18.50
2019-04-07T16:51:51.552Z,18.50
2019-04-07T16:54:21.100Z,18.40
2019-04-07T16:56:54.766Z,18.30
2019-04-07T16:59:22.005Z,18.20
2019-04-07T17:01:51.396Z,18.00
2019-04-07T17:04:21.228Z,17.90
2019-04-07T17:07:00.945Z,17.90
2019-04-07T17:09:24.116Z,17.80
2019-04-07T17:11:53.546Z,17.80
2019-04-07T17:14:23.682Z,17.70
2019-04-07T17:16:53.659Z,17.70
2019-04-07T17:19:25.744Z,17.70
2019-04-07T17:21:54.142Z,17.60
2019-04-07T17:24:27.169Z,17.60
2019-04-07T17:26:55.020Z,17.50
2019-04-07T17:29:25.040Z,17.50
2019-04-07T17:31:56.543Z,17.40
2019-04-07T17:34:27.165Z,17.40
2019-04-07T17:36:56.492Z,17.30
2019-04-07T17:39:45.018Z,17.30
2019-04-07T17:42:15.640Z,17.10
2019-04-07T17:44:58.008Z,17.10
2019-04-07T17:47:45.211Z,17.10
2019-04-07T17:50:33.784Z,17.10
2019-04-07T17:53:19.625Z,16.90
2019-04-07T17:56:06.781Z,16.80
2019-04-07T17:58:44.558Z,16.80
2019-04-07T18:01:32.634Z,16.80
2019-04-07T18:04:20.860Z,16.70
2019-04-07T18:07:09.995Z,16.60
2019-04-07T18:09:57.505Z,16.50
2019-04-07T18:12:49.770Z,16.50
2019-04-07T18:15:37.360Z,16.60
2019-04-07T18:18:26.045Z,16.50
2019-04-07T18:21:07.245Z,16.40
2019-04-07T18:24:02.370Z,16.20
2019-04-07T18:26:50.383Z,16.10
2019-04-07T18:29:45.918Z,16.00
2019-04-07T18:32:43.122Z,15.90
2019-04-07T18:35:43.163Z,15.80
2019-04-07T18:38:30.275Z,15.80
2019-04-07T18:41:16.569Z,15.60
2019-04-07T18:44:07.933Z,15.40
2019-04-07T18:46:57.193Z,15.30
2019-04-07T18:49:49.505Z,15.30
2019-04-07T18:52:31.079Z,15.20
2019-04-07T18:55:19.984Z,15.10
2019-04-07T18:58:03.492Z,15.00
2019-04-07T19:00:56.470Z,14.90
2019-04-07T19:03:54.839Z,15.00
2019-04-07T19:07:09.849Z,14.90
2019-04-07T19:10:06.472Z,14.80
2019-04-07T19:13:04.592Z,14.80
2019-04-07T19:15:39.417Z,14.80
2019-04-07T19:18:32.842Z,14.80
2019-04-07T19:21:20.375Z,14.70
2019-04-07T19:24:10.087Z,14.60
2019-04-07T19:26:57.696Z,14.50
2019-04-07T19:29:41.858Z,14.50
2019-04-07T19:32:40.820Z,14.50
2019-04-07T19:35:29.711Z,14.50
2019-04-07T19:38:19.874Z,14.40
2019-04-07T19:41:13.853Z,14.30
2019-04-07T19:43:50.022Z,14.30
2019-04-07T19:46:31.543Z,14.30
2019-04-07T19:49:20.508Z,14.30
2019-04-07T19:52:03.298Z,14.30
2019-04-07T19:54:51.560Z,14.30
2019-04-07T19:57:46.983Z,14.30
2019-04-07T20:00:26.624Z,14.40
2019-04-07T20:03:15.745Z,14.40
2019-04-07T20:06:07.179Z,14.40
2019-04-07T20:08:53.513Z,14.50
2019-04-07T20:11:41.979Z,14.50
2019-04-07T20:14:45.999Z,14.50
2019-04-07T20:17:32.369Z,14.50
2019-04-07T20:20:26.612Z,14.50
2019-04-07T20:23:11.692Z,14.50
2019-04-07T20:25:59.446Z,14.60
2019-04-07T20:28:40.760Z,14.60
2019-04-07T20:31:37.576Z,14.60
2019-04-07T20:34:23.326Z,14.50
2019-04-07T20:37:15.070Z,14.40
2019-04-07T20:39:56.187Z,14.40
2019-04-07T20:42:36.724Z,14.40
2019-04-07T20:45:21.911Z,14.40
2019-04-07T20:48:15.145Z,14.30
2019-04-07T20:51:03.365Z,14.30
2019-04-07T20:53:41.084Z,14.10
2019-04-07T20:56:44.320Z,14.10
2019-04-07T20:59:32.039Z,13.90
2019-04-07T21:02:20.820Z,13.90
2019-04-07T21:05:07.508Z,13.80
2019-04-07T21:07:54.814Z,13.70
2019-04-07T21:10:36.679Z,13.60
2019-04-07T21:13:37.526Z,13.60
2019-04-07T21:16:28.227Z,13.50
2019-04-07T21:19:22.841Z,13.40
2019-04-07T21:22:12.423Z,13.30
2019-04-07T21:24:57.047Z,13.30
2019-04-07T21:27:36.176Z,13.20
2019-04-07T21:30:18.805Z,13.10
2019-04-07T21:33:07.816Z,13.10
2019-04-07T21:35:54.773Z,13.00
2019-04-07T21:38:52.572Z,13.00
2019-04-07T21:41:54.370Z,12.90
2019-04-07T21:44:38.589Z,12.80
2019-04-07T21:47:28.025Z,12.80
2019-04-07T21:50:22.945Z,12.70
2019-04-07T21:53:19.613Z,12.70
2019-04-07T21:56:06.606Z,12.60
2019-04-07T21:59:01.180Z,12.60
2019-04-07T22:01:48.761Z,12.60
2019-04-07T22:04:53.188Z,12.50
2019-04-07T22:07:33.774Z,12.50
2019-04-07T22:10:05.393Z,12.50
2019-04-07T22:12:34.726Z,12.40
2019-04-07T22:15:04.999Z,12.30
2019-04-07T22:17:37.192Z,12.20
2019-04-07T22:20:06.532Z,12.20
2019-04-07T22:22:35.800Z,12.20
2019-04-07T22:25:07.058Z,12.10
2019-04-07T22:27:36.702Z,12.10
2019-04-07T22:30:09.147Z,12.10
2019-04-07T22:32:38.528Z,12.00
2019-04-07T22:35:08.489Z,12.00
2019-04-07T22:37:37.944Z,11.90
2019-04-07T22:40:14.890Z,11.80
2019-04-07T22:42:45.905Z,11.80
2019-04-07T22:45:15.191Z,11.70
2019-04-07T22:47:44.569Z,11.70
2019-04-07T22:50:14.934Z,11.60
2019-04-07T22:52:47.315Z,11.60
2019-04-07T22:55:16.424Z,11.60
2019-04-07T22:57:45.849Z,11.70
2019-04-07T23:00:21.416Z,11.60
2019-04-07T23:02:50.795Z,11.60
2019-04-07T23:05:20.089Z,11.50
2019-04-07T23:07:50.123Z,11.50
2019-04-07T23:10:19.728Z,11.50
2019-04-07T23:12:49.866Z,11.50
2019-04-07T23:15:19.235Z,11.50
2019-04-07T23:17:49.332Z,11.50
2019-04-07T23:20:19.876Z,11.50
2019-04-07T23:22:49.957Z,11.50
2019-04-07T23:25:20.018Z,11.50
2019-04-07T23:27:50.318Z,11.50
2019-04-07T23:30:23.860Z,11.40
2019-04-07T23:32:53.508Z,11.40
2019-04-07T23:35:23.065Z,11.30
2019-04-07T23:37:52.349Z,11.30
2019-04-07T23:40:21.622Z,11.30
2019-04-07T23:42:51.885Z,11.20
2019-04-07T23:45:21.233Z,11.20
2019-04-07T23:47:50.516Z,11.30
2019-04-07T23:50:20.129Z,11.40
2019-04-07T23:52:49.748Z,11.40
2019-04-07T23:55:20.354Z,11.50
2019-04-07T23:57:49.773Z,11.60
